createdAt,value
2023-03-21T00:00:58.009Z,95391.00
2023-03-21T00:05:05.888Z,95387.00
2023-03-21T00:08:59.027Z,95387.00
2023-03-21T00:12:57.983Z,95387.00
2023-03-21T00:16:57.967Z,95384.00
2023-03-21T00:21:15.737Z,95378.00
2023-03-21T00:24:59.111Z,95376.00
2023-03-21T00:28:58.100Z,95366.00
2023-03-21T00:33:01.461Z,95360.00
2023-03-21T00:36:59.062Z,95356.00
2023-03-21T00:41:01.914Z,95348.00
2023-03-21T00:44:58.988Z,95346.00
2023-03-21T00:48:57.951Z,95346.00
2023-03-21T00:52:57.973Z,95342.00
2023-03-21T00:56:58.142Z,95346.00
2023-03-21T01:00:58.346Z,95344.00
2023-03-21T01:04:58.498Z,95342.00
2023-03-21T01:08:58.667Z,95342.00
2023-03-21T01:12:58.839Z,95339.00
2023-03-21T01:16:59.039Z,95331.00
2023-03-21T01:20:59.136Z,95327.00
2023-03-21T01:25:12.050Z,95327.00
2023-03-21T01:29:00.288Z,95323.00
2023-03-21T01:32:59.244Z,95321.00
2023-03-21T01:36:59.219Z,95317.00
2023-03-21T01:41:00.485Z,95317.00
2023-03-21T01:44:59.470Z,95315.00
2023-03-21T01:48:59.625Z,95309.00
2023-03-21T01:52:59.749Z,95307.00
2023-03-21T01:56:59.917Z,95301.00
2023-03-21T02:01:00.151Z,95303.00
2023-03-21T02:05:00.236Z,95299.00
2023-03-21T02:09:00.421Z,95303.00
2023-03-21T02:13:00.550Z,95297.00
2023-03-21T02:17:00.738Z,95295.00
2023-03-21T02:21:00.914Z,95290.00
2023-03-21T02:25:04.464Z,95293.00
2023-03-21T02:29:02.042Z,95293.00
2023-03-21T02:33:00.999Z,95292.00
2023-03-21T02:37:01.020Z,95288.00
2023-03-21T02:41:03.425Z,95290.00
2023-03-21T02:45:01.301Z,95293.00
2023-03-21T02:49:01.437Z,95292.00
2023-03-21T02:53:01.610Z,95290.00
2023-03-21T02:57:01.747Z,95288.00
2023-03-21T03:01:01.920Z,95290.00
2023-03-21T03:05:06.438Z,95282.00
2023-03-21T03:09:03.330Z,95282.00
2023-03-21T03:13:02.010Z,95286.00
2023-03-21T03:17:01.994Z,95282.00
2023-03-21T03:21:02.246Z,95278.00
2023-03-21T03:25:09.496Z,95276.00
2023-03-21T03:29:03.267Z,95278.00
2023-03-21T03:33:02.240Z,95276.00
2023-03-21T03:37:02.276Z,95274.00
2023-03-21T03:41:02.324Z,95270.00
2023-03-21T03:45:02.482Z,95272.00
2023-03-21T03:49:02.605Z,95268.00
2023-03-21T03:53:07.115Z,95274.00
2023-03-21T03:57:03.730Z,95270.00
2023-03-21T04:01:02.699Z,95270.00
2023-03-21T04:05:02.661Z,95270.00
2023-03-21T04:09:10.516Z,95270.00
2023-03-21T04:13:03.692Z,95266.00
2023-03-21T04:17:02.644Z,95272.00
2023-03-21T04:21:02.626Z,95272.00
2023-03-21T04:25:02.738Z,95274.00
2023-03-21T04:29:02.872Z,95278.00
2023-03-21T04:33:02.996Z,95278.00
2023-03-21T04:37:03.134Z,95284.00
2023-03-21T04:41:03.276Z,95286.00
2023-03-21T04:45:03.411Z,95286.00
2023-03-21T04:49:03.510Z,95292.00
2023-03-21T04:53:03.679Z,95293.00
2023-03-21T04:57:03.815Z,95295.00
2023-03-21T05:01:03.998Z,95288.00
2023-03-21T05:05:04.104Z,95288.00
2023-03-21T05:09:04.232Z,95286.00
2023-03-21T05:13:04.459Z,95286.00
2023-03-21T05:17:04.597Z,95286.00
2023-03-21T05:21:04.680Z,95288.00
2023-03-21T05:25:04.851Z,95286.00
2023-03-21T05:29:04.978Z,95290.00
2023-03-21T05:33:05.172Z,95284.00
2023-03-21T05:37:05.269Z,95286.00
2023-03-21T05:41:05.439Z,95282.00
2023-03-21T05:45:05.532Z,95284.00
2023-03-21T05:49:05.692Z,95284.00
2023-03-21T05:53:05.839Z,95284.00
2023-03-21T05:57:06.043Z,95282.00
2023-03-21T06:01:06.118Z,95282.00
2023-03-21T06:05:06.280Z,95290.00
2023-03-21T06:09:06.297Z,95286.00
2023-03-21T06:13:06.237Z,95284.00
2023-03-21T06:17:06.165Z,95286.00
2023-03-21T06:21:06.136Z,95288.00
2023-03-21T06:25:06.111Z,95286.00
2023-03-21T06:29:06.074Z,95292.00
2023-03-21T06:33:06.011Z,95292.00
2023-03-21T06:37:06.024Z,95293.00
2023-03-21T06:41:05.983Z,95293.00
2023-03-21T06:45:05.913Z,95299.00
2023-03-21T06:49:05.894Z,95301.00
2023-03-21T06:53:05.842Z,95303.00
2023-03-21T06:57:05.834Z,95299.00
2023-03-21T07:01:05.810Z,95301.00
2023-03-21T07:05:05.726Z,95301.00
2023-03-21T07:09:05.699Z,95299.00
2023-03-21T07:13:05.667Z,95297.00
2023-03-21T07:17:05.671Z,95290.00
2023-03-21T07:21:06.190Z,95299.00
2023-03-21T07:25:05.772Z,95297.00
2023-03-21T07:29:05.531Z,95297.00
2023-03-21T07:33:05.571Z,95299.00
2023-03-21T07:37:05.666Z,95297.00
2023-03-21T07:41:05.662Z,95295.00
2023-03-21T07:45:05.727Z,95301.00
2023-03-21T07:49:05.850Z,95299.00
2023-03-21T07:53:05.959Z,95303.00
2023-03-21T07:57:06.015Z,95307.00
2023-03-21T08:01:06.089Z,95301.00
2023-03-21T08:05:06.182Z,95293.00
2023-03-21T08:09:06.243Z,95290.00
2023-03-21T08:13:06.286Z,95288.00
2023-03-21T08:17:06.356Z,95292.00
2023-03-21T08:21:08.270Z,95290.00
2023-03-21T08:25:06.436Z,95284.00
2023-03-21T08:29:06.268Z,95286.00
2023-03-21T08:33:06.237Z,95280.00
2023-03-21T08:37:06.230Z,95280.00
2023-03-21T08:41:06.195Z,95280.00
2023-03-21T08:45:06.117Z,95284.00
2023-03-21T08:49:06.092Z,95280.00
2023-03-21T08:53:06.064Z,95274.00
2023-03-21T08:57:06.029Z,95272.00
2023-03-21T09:01:06.006Z,95266.00
2023-03-21T09:05:05.972Z,95270.00
2023-03-21T09:09:05.917Z,95264.00
2023-03-21T09:13:05.892Z,95258.00
2023-03-21T09:17:05.850Z,95250.00
2023-03-21T09:21:05.801Z,95250.00
2023-03-21T09:25:05.808Z,95246.00
2023-03-21T09:29:05.780Z,95248.00
2023-03-21T09:33:05.712Z,95244.00
2023-03-21T09:37:05.690Z,95235.00
2023-03-21T09:41:05.641Z,95233.00
2023-03-21T09:45:05.639Z,95237.00
2023-03-21T09:49:05.568Z,95229.00
2023-03-21T09:53:05.557Z,95225.00
2023-03-21T09:57:05.674Z,95215.00
2023-03-21T10:01:05.779Z,95207.00
2023-03-21T10:05:05.908Z,95209.00
2023-03-21T10:09:05.985Z,95205.00
2023-03-21T10:13:06.066Z,95199.00
2023-03-21T10:17:06.110Z,95199.00
2023-03-21T10:21:06.346Z,95193.00
2023-03-21T10:25:06.573Z,95190.00
2023-03-21T10:29:06.853Z,95190.00
2023-03-21T10:33:06.932Z,95182.00
2023-03-21T10:37:07.027Z,95182.00
2023-03-21T10:41:07.145Z,95182.00
2023-03-21T10:45:07.226Z,95176.00
2023-03-21T10:49:07.329Z,95178.00
2023-03-21T10:53:07.410Z,95166.00
2023-03-21T10:57:07.447Z,95160.00
2023-03-21T11:01:07.560Z,95158.00
2023-03-21T11:05:07.597Z,95156.00
2023-03-21T11:09:07.797Z,95150.00
2023-03-21T11:13:07.954Z,95137.00
2023-03-21T11:17:08.211Z,95133.00
2023-03-21T11:21:08.137Z,95129.00
2023-03-21T11:25:08.197Z,95133.00
2023-03-21T11:29:08.171Z,95125.00
2023-03-21T11:33:08.202Z,95119.00
2023-03-21T11:37:08.233Z,95111.00
2023-03-21T11:41:08.347Z,95107.00
2023-03-21T11:45:08.415Z,95101.00
2023-03-21T11:49:08.524Z,95088.00
2023-03-21T11:53:08.608Z,95086.00
2023-03-21T11:57:08.667Z,95082.00
2023-03-21T12:01:08.840Z,95078.00
2023-03-21T12:05:08.969Z,95070.00
2023-03-21T12:09:09.042Z,95068.00
2023-03-21T12:13:09.056Z,95060.00
2023-03-21T12:17:09.113Z,95056.00
2023-03-21T12:21:09.207Z,95048.00
2023-03-21T12:25:09.394Z,95040.00
2023-03-21T12:29:09.362Z,95036.00
2023-03-21T12:33:09.327Z,95033.00
2023-03-21T12:37:09.324Z,95025.00
2023-03-21T12:41:09.341Z,95013.00
2023-03-21T12:45:15.224Z,95009.00
2023-03-21T12:49:10.269Z,95005.00
2023-03-21T12:53:09.116Z,95003.00
2023-03-21T12:57:09.194Z,94997.00
2023-03-21T13:01:09.334Z,94997.00
2023-03-21T13:05:09.380Z,94995.00
2023-03-21T13:09:09.590Z,94997.00
2023-03-21T13:13:09.921Z,94988.00
2023-03-21T13:17:09.893Z,94991.00
2023-03-21T13:21:10.005Z,94986.00
2023-03-21T13:25:10.097Z,94984.00
2023-03-21T13:29:10.295Z,94976.00
2023-03-21T13:33:10.282Z,94976.00
2023-03-21T13:37:10.333Z,94968.00
2023-03-21T13:41:10.399Z,94962.00
2023-03-21T13:45:10.549Z,94958.00
2023-03-21T13:49:10.520Z,94952.00
2023-03-21T13:53:10.561Z,94950.00
2023-03-21T13:57:10.628Z,94939.00
2023-03-21T14:05:29.858Z,94933.00
2023-03-21T14:09:29.660Z,94933.00
2023-03-21T14:13:31.255Z,94933.00
2023-03-21T14:17:29.820Z,94933.00
2023-03-21T14:21:29.948Z,94927.00
2023-03-21T14:25:36.900Z,94927.00
2023-03-21T14:29:31.848Z,94923.00
2023-03-21T14:33:29.853Z,94919.00
2023-03-21T14:37:29.889Z,94915.00
2023-03-21T14:41:29.792Z,94911.00
2023-03-21T14:45:29.947Z,94911.00
2023-03-21T14:49:30.064Z,94905.00
2023-03-21T14:53:30.292Z,94909.00
2023-03-21T14:57:30.295Z,94903.00
2023-03-21T15:01:30.461Z,94901.00
2023-03-21T15:05:30.610Z,94901.00
2023-03-21T15:09:30.854Z,94891.00
2023-03-21T15:13:30.885Z,94889.00
2023-03-21T15:17:31.032Z,94887.00
2023-03-21T15:21:31.204Z,94887.00
2023-03-21T15:25:31.435Z,94887.00
2023-03-21T15:29:31.498Z,94887.00
2023-03-21T15:33:31.623Z,94878.00
2023-03-21T15:37:31.798Z,94876.00
2023-03-21T15:41:32.059Z,94874.00
2023-03-21T15:45:32.157Z,94868.00
2023-03-21T15:49:32.273Z,94864.00
2023-03-21T15:53:32.437Z,94862.00
2023-03-21T15:57:32.721Z,94864.00
2023-03-21T16:01:32.735Z,94864.00
2023-03-21T16:05:32.907Z,94866.00
2023-03-21T16:09:33.063Z,94872.00
2023-03-21T16:13:33.326Z,94876.00
2023-03-21T16:17:33.464Z,94876.00
2023-03-21T16:21:33.572Z,94878.00
2023-03-21T16:25:33.712Z,94880.00
2023-03-21T16:29:33.895Z,94887.00
2023-03-21T16:33:34.028Z,94887.00
2023-03-21T16:37:34.224Z,94893.00
2023-03-21T16:41:34.357Z,94893.00
2023-03-21T16:45:34.599Z,94897.00
2023-03-21T16:49:34.686Z,94901.00
2023-03-21T16:53:34.808Z,94901.00
2023-03-21T16:57:34.974Z,94901.00
2023-03-21T17:01:35.168Z,94901.00
2023-03-21T17:05:35.280Z,94901.00
2023-03-21T17:09:35.433Z,94905.00
2023-03-21T17:13:35.576Z,94907.00
2023-03-21T17:17:35.755Z,94911.00
2023-03-21T17:21:35.893Z,94913.00
2023-03-21T17:25:36.062Z,94921.00
2023-03-21T17:29:36.247Z,94923.00
2023-03-21T17:33:36.424Z,94927.00
2023-03-21T17:37:36.567Z,94925.00
2023-03-21T17:41:36.762Z,94923.00
2023-03-21T17:45:36.986Z,94927.00
2023-03-21T17:49:37.150Z,94931.00
2023-03-21T17:53:37.359Z,94929.00
2023-03-21T17:57:37.600Z,94927.00
2023-03-21T18:01:37.840Z,94929.00
2023-03-21T18:05:37.983Z,94937.00
2023-03-21T18:09:38.175Z,94944.00
2023-03-21T18:13:38.481Z,94944.00
2023-03-21T18:17:38.575Z,94948.00
2023-03-21T18:21:38.768Z,94954.00
2023-03-21T18:25:39.015Z,94952.00
2023-03-21T18:30:25.823Z,94960.00
2023-03-21T18:33:40.166Z,94964.00
2023-03-21T18:37:39.098Z,94968.00
2023-03-21T18:41:39.262Z,94972.00
2023-03-21T18:45:39.443Z,94984.00
2023-03-21T18:53:40.396Z,94986.00
2023-03-21T18:57:39.524Z,94988.00
2023-03-21T19:01:39.698Z,94989.00
2023-03-21T19:05:39.758Z,94991.00
2023-03-21T19:10:01.481Z,94995.00
2023-03-21T19:13:40.700Z,94999.00
2023-03-21T19:21:40.624Z,95005.00
2023-03-21T19:25:39.588Z,95005.00
2023-03-21T19:29:39.649Z,95003.00
2023-03-21T19:33:39.774Z,95007.00
2023-03-21T19:37:39.907Z,95007.00
2023-03-21T19:41:40.686Z,95011.00
2023-03-21T19:45:40.314Z,95009.00
2023-03-21T19:50:15.819Z,95007.00
2023-03-21T19:53:41.353Z,95005.00
2023-03-21T19:57:40.328Z,95009.00
2023-03-21T20:01:40.338Z,95013.00
2023-03-21T20:05:40.233Z,95013.00
2023-03-21T20:09:52.286Z,95013.00
2023-03-21T20:13:41.194Z,95017.00
2023-03-21T20:17:40.192Z,95019.00
2023-03-21T20:21:49.135Z,95017.00
2023-03-21T20:25:41.106Z,95019.00
2023-03-21T20:30:10.424Z,95021.00
2023-03-21T20:33:41.021Z,95023.00
2023-03-21T20:37:39.964Z,95025.00
2023-03-21T20:41:39.929Z,95025.00
2023-03-21T20:45:39.901Z,95031.00
2023-03-21T20:49:40.334Z,95033.00
2023-03-21T20:53:39.835Z,95033.00
2023-03-21T20:57:39.800Z,95033.00
2023-03-21T21:01:39.842Z,95035.00
2023-03-21T21:05:39.909Z,95040.00
2023-03-21T21:09:39.951Z,95038.00
2023-03-21T21:13:39.994Z,95040.00
2023-03-21T21:18:04.763Z,95046.00
2023-03-21T21:21:41.135Z,95050.00
2023-03-21T21:25:40.109Z,95052.00
2023-03-21T21:29:40.104Z,95052.00
2023-03-21T21:33:40.060Z,95054.00
2023-03-21T21:37:40.067Z,95058.00
2023-03-21T21:41:40.092Z,95060.00
2023-03-21T21:45:40.102Z,95060.00
2023-03-21T21:49:40.163Z,95054.00
2023-03-21T21:53:40.216Z,95054.00
2023-03-21T21:57:40.236Z,95056.00
2023-03-21T22:01:40.260Z,95058.00
2023-03-21T22:05:40.277Z,95058.00
2023-03-21T22:09:40.349Z,95062.00
2023-03-21T22:13:40.382Z,95066.00
2023-03-21T22:17:40.438Z,95068.00
2023-03-21T22:21:40.505Z,95066.00
2023-03-21T22:25:40.558Z,95060.00
2023-03-21T22:29:40.664Z,95060.00
2023-03-21T22:33:40.716Z,95056.00
2023-03-21T22:37:40.868Z,95054.00
2023-03-21T22:41:40.998Z,95058.00
2023-03-21T22:45:41.198Z,95058.00
2023-03-21T22:49:41.347Z,95060.00
2023-03-21T22:53:41.530Z,95062.00
2023-03-21T22:57:41.676Z,95058.00
2023-03-21T23:01:41.855Z,95060.00
2023-03-21T23:05:41.982Z,95054.00
2023-03-21T23:09:42.206Z,95054.00
2023-03-21T23:13:42.385Z,95056.00
2023-03-21T23:17:42.528Z,95056.00
2023-03-21T23:21:42.744Z,95052.00
2023-03-21T23:25:42.981Z,95052.00
2023-03-21T23:29:43.192Z,95054.00
2023-03-21T23:33:43.389Z,95050.00
2023-03-21T23:37:43.588Z,95048.00
2023-03-21T23:41:43.822Z,95050.00
2023-03-21T23:45:44.027Z,95048.00
2023-03-21T23:49:44.250Z,95054.00
2023-03-21T23:53:44.492Z,95056.00
2023-03-21T23:57:44.673Z,95054.00
